sensor_id;sensor_type;location;lat;lon;timestamp;P1;durP1;ratioP1;P2;durP2;ratioP2
55212;SDS011;41083;52.932;6.674;2023-09-08T00:02:05;4.68;;;3.25;;
55212;SDS011;41083;52.932;6.674;2023-09-08T00:04:31;6.32;;;3.80;;
55212;SDS011;41083;52.932;6.674;2023-09-08T00:06:58;6.60;;;4.00;;
55212;SDS011;41083;52.932;6.674;2023-09-08T00:09:23;7.40;;;3.63;;
55212;SDS011;41083;52.932;6.674;2023-09-08T00:11:49;6.25;;;3.80;;
55212;SDS011;41083;52.932;6.674;2023-09-08T00:14:15;6.75;;;4.05;;
55212;SDS011;41083;52.932;6.674;2023-09-08T00:16:40;5.50;;;3.42;;
55212;SDS011;41083;52.932;6.674;2023-09-08T00:19:08;6.93;;;3.88;;
55212;SDS011;41083;52.932;6.674;2023-09-08T00:21:34;6.97;;;4.30;;
55212;SDS011;41083;52.932;6.674;2023-09-08T00:24:01;8.48;;;3.65;;
55212;SDS011;41083;52.932;6.674;2023-09-08T00:26:27;6.20;;;3.83;;
55212;SDS011;41083;52.932;6.674;2023-09-08T00:28:52;5.35;;;3.50;;
55212;SDS011;41083;52.932;6.674;2023-09-08T00:31:18;6.07;;;3.75;;
55212;SDS011;41083;52.932;6.674;2023-09-08T00:33:43;5.53;;;3.50;;
55212;SDS011;41083;52.932;6.674;2023-09-08T00:36:09;6.50;;;3.78;;
55212;SDS011;41083;52.932;6.674;2023-09-08T00:38:35;7.40;;;4.22;;
55212;SDS011;41083;52.932;6.674;2023-09-08T00:41:00;6.55;;;3.42;;
55212;SDS011;41083;52.932;6.674;2023-09-08T00:43:26;7.15;;;3.58;;
55212;SDS011;41083;52.932;6.674;2023-09-08T00:45:52;5.45;;;3.15;;
55212;SDS011;41083;52.932;6.674;2023-09-08T00:48:19;6.70;;;3.90;;
55212;SDS011;41083;52.932;6.674;2023-09-08T00:50:45;6.43;;;3.97;;
55212;SDS011;41083;52.932;6.674;2023-09-08T00:53:11;5.78;;;3.63;;
55212;SDS011;41083;52.932;6.674;2023-09-08T00:55:37;7.95;;;3.53;;
55212;SDS011;41083;52.932;6.674;2023-09-08T00:58:04;6.25;;;3.75;;
55212;SDS011;41083;52.932;6.674;2023-09-08T01:00:30;9.88;;;3.75;;
55212;SDS011;41083;52.932;6.674;2023-09-08T01:02:57;6.13;;;3.85;;
55212;SDS011;41083;52.932;6.674;2023-09-08T01:05:23;7.28;;;3.92;;
55212;SDS011;41083;52.932;6.674;2023-09-08T01:07:49;6.82;;;3.88;;
55212;SDS011;41083;52.932;6.674;2023-09-08T01:10:17;5.30;;;3.55;;
55212;SDS011;41083;52.932;6.674;2023-09-08T01:12:42;6.43;;;3.78;;
55212;SDS011;41083;52.932;6.674;2023-09-08T01:15:08;6.13;;;3.33;;
55212;SDS011;41083;52.932;6.674;2023-09-08T01:17:34;6.15;;;3.72;;
55212;SDS011;41083;52.932;6.674;2023-09-08T01:20:01;6.97;;;3.95;;
55212;SDS011;41083;52.932;6.674;2023-09-08T01:25:28;6.50;;;3.75;;
55212;SDS011;41083;52.932;6.674;2023-09-08T01:27:55;6.75;;;3.95;;
55212;SDS011;41083;52.932;6.674;2023-09-08T01:30:25;6.80;;;3.72;;
55212;SDS011;41083;52.932;6.674;2023-09-08T01:32:53;6.90;;;3.85;;
55212;SDS011;41083;52.932;6.674;2023-09-08T01:35:19;6.57;;;4.15;;
55212;SDS011;41083;52.932;6.674;2023-09-08T01:37:46;7.43;;;4.55;;
55212;SDS011;41083;52.932;6.674;2023-09-08T01:40:13;7.22;;;3.72;;
55212;SDS011;41083;52.932;6.674;2023-09-08T01:42:39;8.77;;;4.47;;
55212;SDS011;41083;52.932;6.674;2023-09-08T01:45:06;8.10;;;4.05;;
55212;SDS011;41083;52.932;6.674;2023-09-08T01:47:32;6.78;;;4.03;;
55212;SDS011;41083;52.932;6.674;2023-09-08T01:49:58;5.68;;;3.72;;
55212;SDS011;41083;52.932;6.674;2023-09-08T01:52:24;8.93;;;4.50;;
55212;SDS011;41083;52.932;6.674;2023-09-08T01:54:50;8.52;;;4.63;;
55212;SDS011;41083;52.932;6.674;2023-09-08T01:57:16;7.68;;;4.25;;
55212;SDS011;41083;52.932;6.674;2023-09-08T01:59:42;7.80;;;4.30;;
55212;SDS011;41083;52.932;6.674;2023-09-08T02:02:09;6.95;;;3.97;;
55212;SDS011;41083;52.932;6.674;2023-09-08T02:04:35;7.40;;;4.05;;
55212;SDS011;41083;52.932;6.674;2023-09-08T02:07:01;8.25;;;4.03;;
55212;SDS011;41083;52.932;6.674;2023-09-08T02:09:35;8.18;;;4.25;;
55212;SDS011;41083;52.932;6.674;2023-09-08T02:12:02;7.63;;;4.55;;
55212;SDS011;41083;52.932;6.674;2023-09-08T02:14:28;7.68;;;4.47;;
55212;SDS011;41083;52.932;6.674;2023-09-08T02:16:54;7.45;;;4.65;;
55212;SDS011;41083;52.932;6.674;2023-09-08T02:19:20;8.70;;;4.05;;
55212;SDS011;41083;52.932;6.674;2023-09-08T02:21:46;6.53;;;3.67;;
55212;SDS011;41083;52.932;6.674;2023-09-08T02:24:11;7.40;;;4.03;;
55212;SDS011;41083;52.932;6.674;2023-09-08T02:26:40;7.13;;;4.45;;
55212;SDS011;41083;52.932;6.674;2023-09-08T02:29:06;7.30;;;4.00;;
55212;SDS011;41083;52.932;6.674;2023-09-08T02:31:32;7.13;;;4.30;;
55212;SDS011;41083;52.932;6.674;2023-09-08T02:33:58;7.65;;;3.95;;
55212;SDS011;41083;52.932;6.674;2023-09-08T02:36:23;9.05;;;4.47;;
55212;SDS011;41083;52.932;6.674;2023-09-08T02:38:55;7.90;;;4.47;;
55212;SDS011;41083;52.932;6.674;2023-09-08T02:41:21;6.13;;;3.92;;
55212;SDS011;41083;52.932;6.674;2023-09-08T02:43:47;9.52;;;4.53;;
55212;SDS011;41083;52.932;6.674;2023-09-08T02:46:13;8.20;;;4.43;;
55212;SDS011;41083;52.932;6.674;2023-09-08T02:48:39;6.65;;;4.20;;
55212;SDS011;41083;52.932;6.674;2023-09-08T02:51:05;9.30;;;4.85;;
55212;SDS011;41083;52.932;6.674;2023-09-08T02:53:30;8.65;;;4.68;;
55212;SDS011;41083;52.932;6.674;2023-09-08T02:55:56;9.43;;;5.10;;
55212;SDS011;41083;52.932;6.674;2023-09-08T02:58:23;9.13;;;4.43;;
55212;SDS011;41083;52.932;6.674;2023-09-08T03:00:49;7.57;;;4.15;;
55212;SDS011;41083;52.932;6.674;2023-09-08T03:03:16;7.70;;;4.20;;
55212;SDS011;41083;52.932;6.674;2023-09-08T03:05:42;10.45;;;4.93;;
55212;SDS011;41083;52.932;6.674;2023-09-08T03:08:07;10.73;;;4.43;;
55212;SDS011;41083;52.932;6.674;2023-09-08T03:10:33;8.50;;;4.63;;
55212;SDS011;41083;52.932;6.674;2023-09-08T03:13:02;9.80;;;4.78;;
55212;SDS011;41083;52.932;6.674;2023-09-08T03:15:28;9.38;;;4.97;;
55212;SDS011;41083;52.932;6.674;2023-09-08T03:17:57;7.43;;;4.45;;
55212;SDS011;41083;52.932;6.674;2023-09-08T03:20:26;7.75;;;4.38;;
55212;SDS011;41083;52.932;6.674;2023-09-08T03:22:52;8.02;;;4.70;;
55212;SDS011;41083;52.932;6.674;2023-09-08T03:25:18;8.30;;;4.45;;
55212;SDS011;41083;52.932;6.674;2023-09-08T03:27:43;10.32;;;4.72;;
55212;SDS011;41083;52.932;6.674;2023-09-08T03:30:09;10.77;;;4.65;;
55212;SDS011;41083;52.932;6.674;2023-09-08T03:32:35;9.88;;;4.43;;
55212;SDS011;41083;52.932;6.674;2023-09-08T03:35:02;6.75;;;4.40;;
55212;SDS011;41083;52.932;6.674;2023-09-08T03:37:29;7.45;;;4.70;;
55212;SDS011;41083;52.932;6.674;2023-09-08T03:39:55;7.57;;;4.72;;
55212;SDS011;41083;52.932;6.674;2023-09-08T03:42:20;9.68;;;5.18;;
55212;SDS011;41083;52.932;6.674;2023-09-08T03:44:46;8.82;;;5.07;;
55212;SDS011;41083;52.932;6.674;2023-09-08T03:47:11;6.72;;;4.35;;
55212;SDS011;41083;52.932;6.674;2023-09-08T03:49:37;9.10;;;5.00;;
55212;SDS011;41083;52.932;6.674;2023-09-08T03:52:02;7.22;;;4.40;;
55212;SDS011;41083;52.932;6.674;2023-09-08T03:54:28;7.43;;;4.75;;
55212;SDS011;41083;52.932;6.674;2023-09-08T03:56:53;7.30;;;4.50;;
55212;SDS011;41083;52.932;6.674;2023-09-08T03:59:19;10.18;;;4.43;;
55212;SDS011;41083;52.932;6.674;2023-09-08T04:01:44;7.97;;;4.90;;
55212;SDS011;41083;52.932;6.674;2023-09-08T04:04:10;7.57;;;4.35;;
55212;SDS011;41083;52.932;6.674;2023-09-08T04:06:36;8.63;;;4.45;;
55212;SDS011;41083;52.932;6.674;2023-09-08T04:09:01;10.32;;;4.95;;
55212;SDS011;41083;52.932;6.674;2023-09-08T04:11:27;11.43;;;5.45;;
55212;SDS011;41083;52.932;6.674;2023-09-08T04:13:53;7.97;;;4.72;;
55212;SDS011;41083;52.932;6.674;2023-09-08T04:16:18;10.35;;;5.57;;
55212;SDS011;41083;52.932;6.674;2023-09-08T04:18:44;8.52;;;4.63;;
55212;SDS011;41083;52.932;6.674;2023-09-08T04:21:09;8.30;;;5.22;;
55212;SDS011;41083;52.932;6.674;2023-09-08T04:23:35;10.10;;;5.00;;
55212;SDS011;41083;52.932;6.674;2023-09-08T04:26:01;9.05;;;5.20;;
55212;SDS011;41083;52.932;6.674;2023-09-08T04:28:26;9.48;;;5.28;;
55212;SDS011;41083;52.932;6.674;2023-09-08T04:30:52;7.45;;;4.55;;
55212;SDS011;41083;52.932;6.674;2023-09-08T04:33:17;9.18;;;5.13;;
55212;SDS011;41083;52.932;6.674;2023-09-08T04:35:43;7.30;;;3.97;;
55212;SDS011;41083;52.932;6.674;2023-09-08T04:38:08;10.13;;;5.00;;
55212;SDS011;41083;52.932;6.674;2023-09-08T04:40:34;10.80;;;4.70;;
55212;SDS011;41083;52.932;6.674;2023-09-08T04:43:00;9.10;;;4.70;;
55212;SDS011;41083;52.932;6.674;2023-09-08T04:45:25;7.95;;;4.80;;
55212;SDS011;41083;52.932;6.674;2023-09-08T04:47:51;11.52;;;5.35;;
55212;SDS011;41083;52.932;6.674;2023-09-08T04:50:16;8.95;;;4.97;;
55212;SDS011;41083;52.932;6.674;2023-09-08T04:52:42;7.90;;;4.80;;
55212;SDS011;41083;52.932;6.674;2023-09-08T04:55:08;9.05;;;4.93;;
55212;SDS011;41083;52.932;6.674;2023-09-08T04:57:34;8.82;;;4.63;;
55212;SDS011;41083;52.932;6.674;2023-09-08T05:00:00;8.20;;;4.88;;
55212;SDS011;41083;52.932;6.674;2023-09-08T05:02:26;9.27;;;5.25;;
55212;SDS011;41083;52.932;6.674;2023-09-08T05:04:52;13.15;;;5.15;;
55212;SDS011;41083;52.932;6.674;2023-09-08T05:07:17;8.10;;;5.15;;
55212;SDS011;41083;52.932;6.674;2023-09-08T05:09:44;8.32;;;4.25;;
55212;SDS011;41083;52.932;6.674;2023-09-08T05:12:09;10.18;;;4.95;;
55212;SDS011;41083;52.932;6.674;2023-09-08T05:14:35;8.85;;;4.40;;
55212;SDS011;41083;52.932;6.674;2023-09-08T05:17:00;8.25;;;4.68;;
55212;SDS011;41083;52.932;6.674;2023-09-08T05:19:26;8.43;;;5.20;;
55212;SDS011;41083;52.932;6.674;2023-09-08T05:21:53;11.40;;;4.88;;
55212;SDS011;41083;52.932;6.674;2023-09-08T05:24:19;8.85;;;4.93;;
55212;SDS011;41083;52.932;6.674;2023-09-08T05:26:45;9.48;;;4.55;;
55212;SDS011;41083;52.932;6.674;2023-09-08T05:29:11;9.13;;;4.93;;
55212;SDS011;41083;52.932;6.674;2023-09-08T05:31:37;8.98;;;4.78;;
55212;SDS011;41083;52.932;6.674;2023-09-08T05:34:02;8.40;;;5.00;;
55212;SDS011;41083;52.932;6.674;2023-09-08T05:36:28;7.07;;;4.35;;
55212;SDS011;41083;52.932;6.674;2023-09-08T05:38:55;10.52;;;4.90;;
55212;SDS011;41083;52.932;6.674;2023-09-08T05:41:20;8.45;;;4.82;;
55212;SDS011;41083;52.932;6.674;2023-09-08T05:43:46;9.05;;;4.70;;
55212;SDS011;41083;52.932;6.674;2023-09-08T05:46:12;7.63;;;4.50;;
55212;SDS011;41083;52.932;6.674;2023-09-08T05:48:38;9.30;;;4.65;;
55212;SDS011;41083;52.932;6.674;2023-09-08T05:51:03;10.57;;;5.18;;
55212;SDS011;41083;52.932;6.674;2023-09-08T05:53:31;8.50;;;4.47;;
55212;SDS011;41083;52.932;6.674;2023-09-08T05:55:56;11.00;;;4.90;;
55212;SDS011;41083;52.932;6.674;2023-09-08T05:58:22;10.38;;;5.22;;
55212;SDS011;41083;52.932;6.674;2023-09-08T06:00:49;7.93;;;4.50;;
55212;SDS011;41083;52.932;6.674;2023-09-08T06:03:14;10.60;;;4.70;;
55212;SDS011;41083;52.932;6.674;2023-09-08T06:05:40;8.95;;;5.03;;
55212;SDS011;41083;52.932;6.674;2023-09-08T06:08:05;11.32;;;4.65;;
55212;SDS011;41083;52.932;6.674;2023-09-08T06:10:31;7.18;;;4.25;;
55212;SDS011;41083;52.932;6.674;2023-09-08T06:12:57;8.98;;;4.95;;
55212;SDS011;41083;52.932;6.674;2023-09-08T06:15:22;10.95;;;4.90;;
55212;SDS011;41083;52.932;6.674;2023-09-08T06:17:48;9.32;;;5.20;;
55212;SDS011;41083;52.932;6.674;2023-09-08T06:20:14;9.52;;;4.60;;
55212;SDS011;41083;52.932;6.674;2023-09-08T06:22:41;11.10;;;5.25;;
55212;SDS011;41083;52.932;6.674;2023-09-08T06:25:06;10.98;;;5.20;;
55212;SDS011;41083;52.932;6.674;2023-09-08T06:27:32;7.88;;;4.47;;
55212;SDS011;41083;52.932;6.674;2023-09-08T06:29:58;8.18;;;4.40;;
55212;SDS011;41083;52.932;6.674;2023-09-08T06:32:23;10.52;;;4.93;;
55212;SDS011;41083;52.932;6.674;2023-09-08T06:34:49;11.07;;;4.95;;
55212;SDS011;41083;52.932;6.674;2023-09-08T06:37:14;11.07;;;5.53;;
55212;SDS011;41083;52.932;6.674;2023-09-08T06:39:40;8.35;;;4.38;;
55212;SDS011;41083;52.932;6.674;2023-09-08T06:42:05;8.73;;;4.80;;
55212;SDS011;41083;52.932;6.674;2023-09-08T06:44:31;8.00;;;4.80;;
55212;SDS011;41083;52.932;6.674;2023-09-08T06:46:57;7.72;;;4.68;;
55212;SDS011;41083;52.932;6.674;2023-09-08T06:49:22;9.90;;;5.13;;
55212;SDS011;41083;52.932;6.674;2023-09-08T06:51:48;9.02;;;5.03;;
55212;SDS011;41083;52.932;6.674;2023-09-08T06:54:14;10.13;;;4.40;;
55212;SDS011;41083;52.932;6.674;2023-09-08T06:56:39;8.63;;;4.88;;
55212;SDS011;41083;52.932;6.674;2023-09-08T06:59:05;7.30;;;4.60;;
55212;SDS011;41083;52.932;6.674;2023-09-08T07:01:30;7.95;;;4.90;;
55212;SDS011;41083;52.932;6.674;2023-09-08T07:03:56;8.82;;;4.57;;
55212;SDS011;41083;52.932;6.674;2023-09-08T07:06:21;8.50;;;4.88;;
55212;SDS011;41083;52.932;6.674;2023-09-08T07:08:47;11.48;;;5.53;;
55212;SDS011;41083;52.932;6.674;2023-09-08T07:11:16;9.77;;;4.43;;
55212;SDS011;41083;52.932;6.674;2023-09-08T07:13:42;8.00;;;4.53;;
55212;SDS011;41083;52.932;6.674;2023-09-08T07:16:07;9.88;;;5.00;;
55212;SDS011;41083;52.932;6.674;2023-09-08T07:18:33;8.82;;;4.88;;
55212;SDS011;41083;52.932;6.674;2023-09-08T07:21:01;7.78;;;4.50;;
55212;SDS011;41083;52.932;6.674;2023-09-08T07:23:27;9.50;;;5.28;;
55212;SDS011;41083;52.932;6.674;2023-09-08T07:25:52;8.95;;;4.30;;
55212;SDS011;41083;52.932;6.674;2023-09-08T07:28:18;7.55;;;4.35;;
55212;SDS011;41083;52.932;6.674;2023-09-08T07:30:44;13.13;;;4.20;;
55212;SDS011;41083;52.932;6.674;2023-09-08T07:33:09;7.15;;;3.65;;
55212;SDS011;41083;52.932;6.674;2023-09-08T07:35:38;6.43;;;3.60;;
55212;SDS011;41083;52.932;6.674;2023-09-08T07:38:05;7.47;;;4.05;;
55212;SDS011;41083;52.932;6.674;2023-09-08T07:40:34;6.28;;;3.50;;
55212;SDS011;41083;52.932;6.674;2023-09-08T07:43:00;8.02;;;4.03;;
55212;SDS011;41083;52.932;6.674;2023-09-08T07:45:26;7.55;;;3.90;;
55212;SDS011;41083;52.932;6.674;2023-09-08T07:47:51;7.72;;;3.83;;
55212;SDS011;41083;52.932;6.674;2023-09-08T07:50:18;6.85;;;3.80;;
55212;SDS011;41083;52.932;6.674;2023-09-08T07:52:48;6.43;;;3.08;;
55212;SDS011;41083;52.932;6.674;2023-09-08T07:55:15;6.00;;;3.55;;
55212;SDS011;41083;52.932;6.674;2023-09-08T07:57:42;6.97;;;3.38;;
55212;SDS011;41083;52.932;6.674;2023-09-08T08:00:08;5.32;;;3.22;;
55212;SDS011;41083;52.932;6.674;2023-09-08T08:02:36;9.98;;;3.88;;
55212;SDS011;41083;52.932;6.674;2023-09-08T08:05:02;6.32;;;3.70;;
55212;SDS011;41083;52.932;6.674;2023-09-08T08:07:28;5.57;;;3.38;;
55212;SDS011;41083;52.932;6.674;2023-09-08T08:09:55;5.80;;;3.80;;
55212;SDS011;41083;52.932;6.674;2023-09-08T08:12:20;7.65;;;3.70;;
55212;SDS011;41083;52.932;6.674;2023-09-08T08:14:46;5.93;;;3.42;;
55212;SDS011;41083;52.932;6.674;2023-09-08T08:17:11;8.65;;;3.58;;
55212;SDS011;41083;52.932;6.674;2023-09-08T08:19:37;6.88;;;3.08;;
55212;SDS011;41083;52.932;6.674;2023-09-08T08:22:03;5.30;;;3.28;;
55212;SDS011;41083;52.932;6.674;2023-09-08T08:24:28;5.13;;;3.05;;
55212;SDS011;41083;52.932;6.674;2023-09-08T08:26:55;6.05;;;3.22;;
55212;SDS011;41083;52.932;6.674;2023-09-08T08:29:21;6.13;;;3.40;;
55212;SDS011;41083;52.932;6.674;2023-09-08T08:31:46;6.05;;;3.30;;
55212;SDS011;41083;52.932;6.674;2023-09-08T08:34:12;5.10;;;2.90;;
55212;SDS011;41083;52.932;6.674;2023-09-08T08:36:37;6.25;;;3.05;;
55212;SDS011;41083;52.932;6.674;2023-09-08T08:39:03;4.88;;;3.03;;
55212;SDS011;41083;52.932;6.674;2023-09-08T08:41:30;7.75;;;3.30;;
55212;SDS011;41083;52.932;6.674;2023-09-08T08:43:56;4.60;;;3.17;;
55212;SDS011;41083;52.932;6.674;2023-09-08T08:46:22;6.70;;;3.47;;
55212;SDS011;41083;52.932;6.674;2023-09-08T08:48:48;6.88;;;3.30;;
55212;SDS011;41083;52.932;6.674;2023-09-08T08:51:17;4.95;;;2.60;;
55212;SDS011;41083;52.932;6.674;2023-09-08T08:53:44;5.97;;;3.20;;
55212;SDS011;41083;52.932;6.674;2023-09-08T08:56:09;5.63;;;2.90;;
55212;SDS011;41083;52.932;6.674;2023-09-08T08:58:36;4.53;;;3.00;;
55212;SDS011;41083;52.932;6.674;2023-09-08T09:01:04;6.53;;;3.00;;
55212;SDS011;41083;52.932;6.674;2023-09-08T09:03:31;8.02;;;3.20;;
55212;SDS011;41083;52.932;6.674;2023-09-08T09:05:59;4.70;;;3.33;;
55212;SDS011;41083;52.932;6.674;2023-09-08T09:08:25;5.13;;;2.95;;
55212;SDS011;41083;52.932;6.674;2023-09-08T09:10:52;6.05;;;3.22;;
55212;SDS011;41083;52.932;6.674;2023-09-08T09:13:18;5.45;;;2.80;;
55212;SDS011;41083;52.932;6.674;2023-09-08T09:15:44;4.72;;;2.72;;
55212;SDS011;41083;52.932;6.674;2023-09-08T09:18:11;4.75;;;2.90;;
55212;SDS011;41083;52.932;6.674;2023-09-08T09:20:37;4.93;;;3.22;;
55212;SDS011;41083;52.932;6.674;2023-09-08T09:23:03;5.78;;;3.30;;
55212;SDS011;41083;52.932;6.674;2023-09-08T09:25:29;4.95;;;2.80;;
55212;SDS011;41083;52.932;6.674;2023-09-08T09:27:57;7.30;;;3.10;;
55212;SDS011;41083;52.932;6.674;2023-09-08T09:30:24;4.70;;;2.83;;
55212;SDS011;41083;52.932;6.674;2023-09-08T09:35:45;6.03;;;3.10;;
55212;SDS011;41083;52.932;6.674;2023-09-08T09:38:18;5.13;;;3.42;;
55212;SDS011;41083;52.932;6.674;2023-09-08T09:40:45;6.13;;;3.00;;
55212;SDS011;41083;52.932;6.674;2023-09-08T09:43:12;6.13;;;3.35;;
55212;SDS011;41083;52.932;6.674;2023-09-08T09:45:39;4.47;;;2.72;;
55212;SDS011;41083;52.932;6.674;2023-09-08T09:48:06;5.55;;;3.00;;
55212;SDS011;41083;52.932;6.674;2023-09-08T09:50:34;5.93;;;2.95;;
55212;SDS011;41083;52.932;6.674;2023-09-08T09:53:07;4.93;;;3.08;;
55212;SDS011;41083;52.932;6.674;2023-09-08T09:55:36;6.20;;;2.83;;
55212;SDS011;41083;52.932;6.674;2023-09-08T09:58:03;5.78;;;3.50;;
55212;SDS011;41083;52.932;6.674;2023-09-08T10:00:30;6.68;;;2.85;;
55212;SDS011;41083;52.932;6.674;2023-09-08T10:02:59;4.25;;;2.60;;
55212;SDS011;41083;52.932;6.674;2023-09-08T10:05:26;6.18;;;3.30;;
55212;SDS011;41083;52.932;6.674;2023-09-08T10:07:52;5.75;;;2.67;;
55212;SDS011;41083;52.932;6.674;2023-09-08T10:10:19;8.25;;;2.95;;
55212;SDS011;41083;52.932;6.674;2023-09-08T10:12:47;5.68;;;2.90;;
55212;SDS011;41083;52.932;6.674;2023-09-08T10:15:22;5.38;;;3.00;;
55212;SDS011;41083;52.932;6.674;2023-09-08T10:17:52;5.47;;;3.35;;
55212;SDS011;41083;52.932;6.674;2023-09-08T10:20:20;4.63;;;2.92;;
55212;SDS011;41083;52.932;6.674;2023-09-08T10:22:56;4.63;;;2.88;;
55212;SDS011;41083;52.932;6.674;2023-09-08T10:25:30;4.85;;;3.08;;
55212;SDS011;41083;52.932;6.674;2023-09-08T10:28:00;5.25;;;2.97;;
55212;SDS011;41083;52.932;6.674;2023-09-08T10:30:26;5.28;;;2.90;;
55212;SDS011;41083;52.932;6.674;2023-09-08T10:32:52;5.15;;;3.17;;
55212;SDS011;41083;52.932;6.674;2023-09-08T10:35:19;5.72;;;2.97;;
55212;SDS011;41083;52.932;6.674;2023-09-08T10:37:44;4.78;;;3.17;;
55212;SDS011;41083;52.932;6.674;2023-09-08T10:40:25;4.82;;;3.10;;
55212;SDS011;41083;52.932;6.674;2023-09-08T10:43:11;5.50;;;2.80;;
55212;SDS011;41083;52.932;6.674;2023-09-08T10:45:36;5.15;;;2.97;;
55212;SDS011;41083;52.932;6.674;2023-09-08T10:48:02;5.13;;;3.53;;
55212;SDS011;41083;52.932;6.674;2023-09-08T10:50:32;4.85;;;3.10;;
55212;SDS011;41083;52.932;6.674;2023-09-08T10:55:47;4.78;;;2.83;;
55212;SDS011;41083;52.932;6.674;2023-09-08T10:58:32;7.38;;;2.83;;
55212;SDS011;41083;52.932;6.674;2023-09-08T11:01:01;4.45;;;2.60;;
55212;SDS011;41083;52.932;6.674;2023-09-08T11:03:30;5.60;;;2.67;;
55212;SDS011;41083;52.932;6.674;2023-09-08T11:06:14;5.50;;;2.72;;
55212;SDS011;41083;52.932;6.674;2023-09-08T11:08:42;5.05;;;2.65;;
55212;SDS011;41083;52.932;6.674;2023-09-08T11:11:13;4.85;;;2.83;;
55212;SDS011;41083;52.932;6.674;2023-09-08T11:13:40;4.93;;;2.80;;
55212;SDS011;41083;52.932;6.674;2023-09-08T11:16:06;5.00;;;2.45;;
55212;SDS011;41083;52.932;6.674;2023-09-08T11:18:32;5.35;;;2.92;;
55212;SDS011;41083;52.932;6.674;2023-09-08T11:21:00;4.43;;;2.80;;
55212;SDS011;41083;52.932;6.674;2023-09-08T11:23:29;6.53;;;2.60;;
55212;SDS011;41083;52.932;6.674;2023-09-08T11:25:56;5.30;;;2.78;;
55212;SDS011;41083;52.932;6.674;2023-09-08T11:28:21;4.28;;;2.30;;
55212;SDS011;41083;52.932;6.674;2023-09-08T11:30:48;5.63;;;2.83;;
55212;SDS011;41083;52.932;6.674;2023-09-08T11:33:15;3.70;;;2.22;;
55212;SDS011;41083;52.932;6.674;2023-09-08T11:35:41;4.18;;;2.55;;
55212;SDS011;41083;52.932;6.674;2023-09-08T11:38:09;4.22;;;2.55;;
55212;SDS011;41083;52.932;6.674;2023-09-08T11:40:35;3.58;;;2.50;;
55212;SDS011;41083;52.932;6.674;2023-09-08T11:43:02;4.20;;;2.50;;
55212;SDS011;41083;52.932;6.674;2023-09-08T11:45:28;4.82;;;2.95;;
55212;SDS011;41083;52.932;6.674;2023-09-08T11:47:55;4.32;;;2.72;;
55212;SDS011;41083;52.932;6.674;2023-09-08T11:50:21;3.95;;;2.50;;
55212;SDS011;41083;52.932;6.674;2023-09-08T11:52:48;3.75;;;2.22;;
55212;SDS011;41083;52.932;6.674;2023-09-08T11:55:15;5.28;;;2.03;;
55212;SDS011;41083;52.932;6.674;2023-09-08T11:57:43;6.88;;;2.70;;
55212;SDS011;41083;52.932;6.674;2023-09-08T12:00:12;4.00;;;2.20;;
55212;SDS011;41083;52.932;6.674;2023-09-08T12:02:42;4.15;;;2.40;;
55212;SDS011;41083;52.932;6.674;2023-09-08T12:05:27;4.20;;;2.05;;
55212;SDS011;41083;52.932;6.674;2023-09-08T12:07:54;4.40;;;2.47;;
55212;SDS011;41083;52.932;6.674;2023-09-08T12:10:21;4.78;;;2.65;;
55212;SDS011;41083;52.932;6.674;2023-09-08T12:12:48;4.30;;;2.60;;
55212;SDS011;41083;52.932;6.674;2023-09-08T12:15:30;4.60;;;2.40;;
55212;SDS011;41083;52.932;6.674;2023-09-08T12:18:01;4.70;;;2.53;;
55212;SDS011;41083;52.932;6.674;2023-09-08T12:20:28;5.65;;;2.53;;
55212;SDS011;41083;52.932;6.674;2023-09-08T12:22:56;4.90;;;2.70;;
55212;SDS011;41083;52.932;6.674;2023-09-08T12:25:24;4.53;;;2.67;;
55212;SDS011;41083;52.932;6.674;2023-09-08T12:27:50;7.85;;;2.67;;
55212;SDS011;41083;52.932;6.674;2023-09-08T12:30:25;3.90;;;2.38;;
55212;SDS011;41083;52.932;6.674;2023-09-08T12:32:57;3.85;;;2.03;;
55212;SDS011;41083;52.932;6.674;2023-09-08T12:35:24;8.20;;;2.33;;
55212;SDS011;41083;52.932;6.674;2023-09-08T12:38:01;4.55;;;2.17;;
55212;SDS011;41083;52.932;6.674;2023-09-08T12:40:28;4.38;;;2.55;;
55212;SDS011;41083;52.932;6.674;2023-09-08T12:42:55;4.07;;;2.25;;
55212;SDS011;41083;52.932;6.674;2023-09-08T12:45:21;5.18;;;2.47;;
55212;SDS011;41083;52.932;6.674;2023-09-08T12:47:50;4.18;;;2.30;;
55212;SDS011;41083;52.932;6.674;2023-09-08T12:50:16;5.05;;;2.75;;
55212;SDS011;41083;52.932;6.674;2023-09-08T12:52:42;6.93;;;2.70;;
55212;SDS011;41083;52.932;6.674;2023-09-08T12:55:08;4.65;;;2.30;;
55212;SDS011;41083;52.932;6.674;2023-09-08T12:57:34;5.57;;;2.75;;
55212;SDS011;41083;52.932;6.674;2023-09-08T13:00:01;3.55;;;2.30;;
55212;SDS011;41083;52.932;6.674;2023-09-08T13:02:27;4.55;;;2.72;;
55212;SDS011;41083;52.932;6.674;2023-09-08T13:04:53;3.72;;;2.20;;
55212;SDS011;41083;52.932;6.674;2023-09-08T13:07:20;4.93;;;2.40;;
55212;SDS011;41083;52.932;6.674;2023-09-08T13:09:46;6.50;;;2.90;;
55212;SDS011;41083;52.932;6.674;2023-09-08T13:12:11;4.90;;;2.40;;
55212;SDS011;41083;52.932;6.674;2023-09-08T13:14:40;5.07;;;2.45;;
55212;SDS011;41083;52.932;6.674;2023-09-08T13:17:05;3.67;;;2.33;;
55212;SDS011;41083;52.932;6.674;2023-09-08T13:19:32;5.55;;;2.60;;
55212;SDS011;41083;52.932;6.674;2023-09-08T13:21:58;4.68;;;2.55;;
55212;SDS011;41083;52.932;6.674;2023-09-08T13:24:24;3.85;;;2.45;;
55212;SDS011;41083;52.932;6.674;2023-09-08T13:26:49;4.80;;;2.40;;
55212;SDS011;41083;52.932;6.674;2023-09-08T13:29:15;5.53;;;2.20;;
55212;SDS011;41083;52.932;6.674;2023-09-08T13:31:41;4.90;;;2.33;;
55212;SDS011;41083;52.932;6.674;2023-09-08T13:34:07;3.80;;;2.47;;
55212;SDS011;41083;52.932;6.674;2023-09-08T13:36:33;4.93;;;2.70;;
55212;SDS011;41083;52.932;6.674;2023-09-08T13:38:58;4.95;;;2.58;;
55212;SDS011;41083;52.932;6.674;2023-09-08T13:41:25;4.85;;;2.63;;
55212;SDS011;41083;52.932;6.674;2023-09-08T13:44:07;4.25;;;2.38;;
55212;SDS011;41083;52.932;6.674;2023-09-08T13:46:33;4.63;;;2.58;;
55212;SDS011;41083;52.932;6.674;2023-09-08T13:48:59;3.90;;;2.08;;
55212;SDS011;41083;52.932;6.674;2023-09-08T13:51:24;4.38;;;2.38;;
55212;SDS011;41083;52.932;6.674;2023-09-08T13:53:50;3.78;;;2.45;;
55212;SDS011;41083;52.932;6.674;2023-09-08T13:56:15;3.95;;;2.55;;
55212;SDS011;41083;52.932;6.674;2023-09-08T13:58:41;3.53;;;1.83;;
55212;SDS011;41083;52.932;6.674;2023-09-08T14:01:10;5.78;;;2.80;;
55212;SDS011;41083;52.932;6.674;2023-09-08T14:03:35;4.68;;;2.40;;
55212;SDS011;41083;52.932;6.674;2023-09-08T14:06:01;4.28;;;2.30;;
55212;SDS011;41083;52.932;6.674;2023-09-08T14:08:27;4.68;;;2.60;;
55212;SDS011;41083;52.932;6.674;2023-09-08T14:10:52;4.38;;;2.38;;
55212;SDS011;41083;52.932;6.674;2023-09-08T14:13:19;4.70;;;2.80;;
55212;SDS011;41083;52.932;6.674;2023-09-08T14:15:44;5.00;;;3.00;;
55212;SDS011;41083;52.932;6.674;2023-09-08T14:18:10;4.80;;;2.20;;
55212;SDS011;41083;52.932;6.674;2023-09-08T14:20:36;3.72;;;2.13;;
55212;SDS011;41083;52.932;6.674;2023-09-08T14:23:02;4.32;;;2.63;;
55212;SDS011;41083;52.932;6.674;2023-09-08T14:25:27;4.13;;;2.58;;
55212;SDS011;41083;52.932;6.674;2023-09-08T14:27:53;5.38;;;2.65;;
55212;SDS011;41083;52.932;6.674;2023-09-08T14:30:18;3.42;;;2.15;;
55212;SDS011;41083;52.932;6.674;2023-09-08T14:32:44;3.88;;;2.08;;
55212;SDS011;41083;52.932;6.674;2023-09-08T14:35:10;4.63;;;2.33;;
55212;SDS011;41083;52.932;6.674;2023-09-08T14:37:35;5.85;;;2.53;;
55212;SDS011;41083;52.932;6.674;2023-09-08T14:40:01;3.90;;;2.10;;
55212;SDS011;41083;52.932;6.674;2023-09-08T14:42:27;5.38;;;2.17;;
55212;SDS011;41083;52.932;6.674;2023-09-08T14:44:54;5.03;;;2.13;;
55212;SDS011;41083;52.932;6.674;2023-09-08T14:47:19;4.60;;;2.13;;
55212;SDS011;41083;52.932;6.674;2023-09-08T14:49:45;4.35;;;2.60;;
55212;SDS011;41083;52.932;6.674;2023-09-08T14:52:11;4.78;;;1.98;;